Terminal Aerodrome Forecast
Issued by NWS Cleveland, OH

Home | Current Version | Previous Version | Text Only | Print | Product List | Glossary Off
Versions: 1 2 3 4 5 6 7 8 9 10 11 12 13 14

000
FTUS41 KCLE 222351 AAA
TAFCAK
TAF AMD
KCAK 222351Z 2300/2324 21012KT P6SM SCT040 BKN200
     FM230500 20012KT P6SM BKN025 OVC040
     FM230600 20012KT P6SM BKN015 OVC025
      TEMPO 2307/2310 4SM SHRA OVC015
     FM231000 21012KT 4SM -SHRA BR VCTS BKN008CB OVC015
     FM231600 22015G22KT 4SM -SHRA BR VCTS OVC015CB
     FM232300 24010KT 5SM -SHRA OVC018=

USA.gov is the U.S. government's official web portal to all federal, state and local government web resources and services.